DLH4WL EDDF-EPWA
Flight info
| Callsign | DLH4WL |
|---|---|
| Flight time | N/A |
| Altitude | 37000 |
| Route | SULUS4D/07C SULUS L984 OKG DCT BALTU DCT LEGAZ DCT LAGAR DCT OKENO Q277 AGAVA |
| Aircraft | A320/M-SDE3FGHIRWY/LB1 |
Departure
| Time | N/A |
|---|---|
| Airport | Frankfurt Main Airport (EDDF) |
Arrival
| Time | 2026-04-30 18:14 |
|---|---|
| Airport | Warsaw Chopin Airport (EPWA) |
| Time | Latitude | Longitude | Altitude | Speed | Heading |
|---|---|---|---|---|---|
| 2026-04-30 17:39 | 51.05913 | 16.41382 | 37427 ft | 395 kts | 64° |
| 2026-04-30 17:42 | 51.15856 | 16.82115 | 37409 ft | 394 kts | 64° |
| 2026-04-30 17:43 | 51.20770 | 17.02524 | 37419 ft | 394 kts | 64° |
| 2026-04-30 17:44 | 51.26597 | 17.27016 | 37401 ft | 394 kts | 64° |
| 2026-04-30 17:47 | 51.35267 | 17.63939 | 37419 ft | 395 kts | 64° |
| 2026-04-30 17:48 | 51.41941 | 17.92861 | 37407 ft | 395 kts | 65° |
| 2026-04-30 17:50 | 51.49484 | 18.25964 | 37411 ft | 396 kts | 65° |
| 2026-04-30 17:52 | 51.54783 | 18.49536 | 37402 ft | 397 kts | 65° |
| 2026-04-30 17:53 | 51.57142 | 18.71500 | 37431 ft | 410 kts | 82° |
| 2026-04-30 17:54 | 51.57378 | 18.89885 | 37409 ft | 411 kts | 82° |
| 2026-04-30 17:56 | 51.57756 | 19.26672 | 35501 ft | 414 kts | 82° |
| 2026-04-30 17:57 | 51.57852 | 19.40338 | 33590 ft | 401 kts | 81° |
| 2026-04-30 17:58 | 51.57936 | 19.53565 | 31305 ft | 390 kts | 81° |
| 2026-04-30 17:59 | 51.58069 | 19.71625 | 25998 ft | 416 kts | 82° |
| 2026-04-30 18:00 | 51.60375 | 19.88259 | 21430 ft | 387 kts | 57° |
| 2026-04-30 18:00 | 51.64361 | 19.99781 | 17875 ft | 394 kts | 58° |
| 2026-04-30 18:01 | 51.66951 | 20.07386 | 16300 ft | 386 kts | 58° |
| 2026-04-30 18:02 | 51.70801 | 20.18703 | 14022 ft | 377 kts | 58° |
| 2026-04-30 18:02 | 51.74547 | 20.29697 | 12773 ft | 370 kts | 58° |
| 2026-04-30 18:03 | 51.78121 | 20.40271 | 11768 ft | 340 kts | 58° |
| 2026-04-30 18:04 | 51.81350 | 20.49912 | 10792 ft | 312 kts | 58° |
| 2026-04-30 18:05 | 51.85275 | 20.61606 | 9775 ft | 270 kts | 58° |
| 2026-04-30 18:06 | 51.88802 | 20.72156 | 8648 ft | 267 kts | 58° |
| 2026-04-30 18:07 | 51.92290 | 20.82651 | 6852 ft | 264 kts | 58° |
| 2026-04-30 18:08 | 51.94628 | 20.90663 | 5653 ft | 258 kts | 62° |
| 2026-04-30 18:09 | 51.98090 | 21.00766 | 3841 ft | 257 kts | 57° |
| 2026-04-30 18:10 | 52.02370 | 21.07760 | 3375 ft | 201 kts | 1° |
| 2026-04-30 18:11 | 52.07491 | 21.04572 | 2197 ft | 191 kts | 337° |
| 2026-04-30 18:11 | 52.10718 | 21.01802 | 1497 ft | 157 kts | 334° |
| 2026-04-30 18:12 | 52.13301 | 20.99585 | 839 ft | 134 kts | 332° |
| 2026-04-30 18:13 | 52.15009 | 20.98079 | 501 ft | 140 kts | 332° |
| 2026-04-30 18:13 | 52.16820 | 20.96499 | 337 ft | 58 kts | 331° |
| 2026-04-30 18:14 | 52.17331 | 20.96245 | 334 ft | 12 kts | 1° |
| 2026-04-30 18:15 | 52.17374 | 20.96256 | 339 ft | 1 kts | 21° |
| 2026-04-30 18:15 | 52.17239 | 20.96531 | 337 ft | 22 kts | 151° |
| 2026-04-30 18:16 | 52.17031 | 20.96727 | 338 ft | 2 kts | 50° |
| 2026-04-30 18:16 | 52.17131 | 20.96696 | 334 ft | 16 kts | 49° |
| 2026-04-30 18:17 | 52.17155 | 20.96763 | 335 ft | 5 kts | 61° |
| 2026-04-30 18:17 | 52.17139 | 20.96859 | 337 ft | 12 kts | 149° |
| 2026-04-30 18:17 | 52.17005 | 20.96973 | 335 ft | 10 kts | 150° |
| 2026-04-30 18:18 | 52.16943 | 20.97028 | 339 ft | 12 kts | 152° |
| 2026-04-30 18:18 | 52.16871 | 20.97091 | 336 ft | 12 kts | 152° |
| 2026-04-30 18:18 | 52.16811 | 20.97143 | 336 ft | 7 kts | 151° |
| 2026-04-30 18:18 | 52.16803 | 20.97205 | 337 ft | 6 kts | 78° |
| 2026-04-30 18:19 | 52.16811 | 20.97264 | 339 ft | 5 kts | 78° |
| 2026-04-30 18:19 | 52.16816 | 20.97304 | 336 ft | 1 kts | 78° |
| 2026-04-30 18:19 | 52.16817 | 20.97312 | 339 ft | 0 kts | 78° |